sensor_id;sensor_type;location;lat;lon;timestamp;pressure;altitude;pressure_sealevel;temperature;humidity
57847;BME280;43675;50.030;21.952;2023-02-13T00:01:56;100638.11;;;-0.70;77.31
57847;BME280;43675;50.030;21.952;2023-02-13T00:04:23;100637.81;;;-0.60;77.41
57847;BME280;43675;50.030;21.952;2023-02-13T00:06:49;100634.47;;;-0.52;77.23
57847;BME280;43675;50.030;21.952;2023-02-13T00:09:16;100636.07;;;-0.44;77.15
57847;BME280;43675;50.030;21.952;2023-02-13T00:11:42;100634.06;;;-0.34;77.18
57847;BME280;43675;50.030;21.952;2023-02-13T00:14:09;100629.59;;;-0.23;77.18
57847;BME280;43675;50.030;21.952;2023-02-13T00:16:35;100626.17;;;-0.11;77.12
57847;BME280;43675;50.030;21.952;2023-02-13T00:19:02;100628.45;;;-0.02;76.85
57847;BME280;43675;50.030;21.952;2023-02-13T00:21:29;100628.90;;;0.04;76.86
57847;BME280;43675;50.030;21.952;2023-02-13T00:23:56;100628.33;;;0.10;76.47
57847;BME280;43675;50.030;21.952;2023-02-13T00:26:22;100628.42;;;0.29;76.20
57847;BME280;43675;50.030;21.952;2023-02-13T00:28:49;100631.17;;;0.49;75.72
57847;BME280;43675;50.030;21.952;2023-02-13T00:31:17;100627.27;;;0.63;75.38
57847;BME280;43675;50.030;21.952;2023-02-13T00:33:44;100626.27;;;0.74;75.04
57847;BME280;43675;50.030;21.952;2023-02-13T00:36:17;100618.96;;;0.83;74.81
57847;BME280;43675;50.030;21.952;2023-02-13T00:38:44;100615.06;;;0.91;74.60
57847;BME280;43675;50.030;21.952;2023-02-13T00:41:12;100613.98;;;0.99;74.70
57847;BME280;43675;50.030;21.952;2023-02-13T00:43:38;100608.16;;;1.02;74.50
57847;BME280;43675;50.030;21.952;2023-02-13T00:46:05;100602.73;;;0.91;74.70
57847;BME280;43675;50.030;21.952;2023-02-13T00:48:33;100601.84;;;0.81;74.91
57847;BME280;43675;50.030;21.952;2023-02-13T00:51:00;100600.56;;;0.76;75.11
57847;BME280;43675;50.030;21.952;2023-02-13T00:53:27;100602.70;;;0.79;75.22
57847;BME280;43675;50.030;21.952;2023-02-13T00:55:54;100597.67;;;0.80;75.28
57847;BME280;43675;50.030;21.952;2023-02-13T00:58:21;100595.89;;;0.83;75.29
57847;BME280;43675;50.030;21.952;2023-02-13T01:00:48;100592.08;;;0.87;75.42
57847;BME280;43675;50.030;21.952;2023-02-13T01:03:16;100591.10;;;0.91;75.33
57847;BME280;43675;50.030;21.952;2023-02-13T01:05:44;100586.61;;;0.94;75.34
57847;BME280;43675;50.030;21.952;2023-02-13T01:08:14;100586.58;;;1.00;75.13
57847;BME280;43675;50.030;21.952;2023-02-13T01:10:42;100584.79;;;1.03;75.13
57847;BME280;43675;50.030;21.952;2023-02-13T01:13:10;100574.60;;;1.05;75.01
57847;BME280;43675;50.030;21.952;2023-02-13T01:15:36;100575.03;;;1.07;75.04
57847;BME280;43675;50.030;21.952;2023-02-13T01:18:03;100570.21;;;1.07;74.85
57847;BME280;43675;50.030;21.952;2023-02-13T01:20:30;100567.79;;;1.06;74.83
57847;BME280;43675;50.030;21.952;2023-02-13T01:22:57;100568.20;;;1.05;74.58
57847;BME280;43675;50.030;21.952;2023-02-13T01:25:24;100566.02;;;1.04;74.56
57847;BME280;43675;50.030;21.952;2023-02-13T01:27:50;100567.45;;;1.01;74.54
57847;BME280;43675;50.030;21.952;2023-02-13T01:30:18;100559.75;;;0.98;74.57
57847;BME280;43675;50.030;21.952;2023-02-13T01:32:45;100562.80;;;0.97;74.53
57847;BME280;43675;50.030;21.952;2023-02-13T01:35:13;100559.16;;;0.96;74.52
57847;BME280;43675;50.030;21.952;2023-02-13T01:37:41;100554.75;;;0.96;74.51
57847;BME280;43675;50.030;21.952;2023-02-13T01:40:11;100551.50;;;0.95;74.45
57847;BME280;43675;50.030;21.952;2023-02-13T01:42:38;100547.55;;;0.96;74.34
57847;BME280;43675;50.030;21.952;2023-02-13T01:45:29;100546.08;;;0.94;74.37
57847;BME280;43675;50.030;21.952;2023-02-13T01:48:00;100536.71;;;0.95;74.29
57847;BME280;43675;50.030;21.952;2023-02-13T01:50:43;100531.97;;;0.97;74.26
57847;BME280;43675;50.030;21.952;2023-02-13T01:53:47;100535.00;;;0.97;74.38
57847;BME280;43675;50.030;21.952;2023-02-13T01:56:11;100527.27;;;0.96;74.27
57847;BME280;43675;50.030;21.952;2023-02-13T01:58:41;100525.11;;;1.00;74.30
57847;BME280;43675;50.030;21.952;2023-02-13T02:01:09;100523.02;;;1.02;74.31
57847;BME280;43675;50.030;21.952;2023-02-13T02:03:45;100521.23;;;1.04;74.55
57847;BME280;43675;50.030;21.952;2023-02-13T02:06:27;100517.55;;;1.09;74.58
57847;BME280;43675;50.030;21.952;2023-02-13T02:08:58;100516.09;;;1.14;74.55
57847;BME280;43675;50.030;21.952;2023-02-13T02:12:00;100516.42;;;1.20;74.66
57847;BME280;43675;50.030;21.952;2023-02-13T02:14:30;100513.14;;;1.26;74.40
57847;BME280;43675;50.030;21.952;2023-02-13T02:16:57;100510.71;;;1.30;74.41
57847;BME280;43675;50.030;21.952;2023-02-13T02:20:00;100512.05;;;1.31;74.44
57847;BME280;43675;50.030;21.952;2023-02-13T02:34:26;100511.29;;;1.41;74.36
57847;BME280;43675;50.030;21.952;2023-02-13T02:37:22;100508.67;;;1.43;74.41
57847;BME280;43675;50.030;21.952;2023-02-13T02:47:56;100502.33;;;1.51;74.56
57847;BME280;43675;50.030;21.952;2023-02-13T02:50:38;100503.43;;;1.55;74.48
57847;BME280;43675;50.030;21.952;2023-02-13T02:53:28;100504.01;;;1.59;74.44
57847;BME280;43675;50.030;21.952;2023-02-13T02:56:05;100503.86;;;1.63;74.43
57847;BME280;43675;50.030;21.952;2023-02-13T02:58:44;100504.02;;;1.68;74.40
57847;BME280;43675;50.030;21.952;2023-02-13T03:01:17;100504.23;;;1.72;74.52
57847;BME280;43675;50.030;21.952;2023-02-13T03:03:45;100505.20;;;1.76;74.60
57847;BME280;43675;50.030;21.952;2023-02-13T03:06:24;100509.32;;;1.79;74.40
57847;BME280;43675;50.030;21.952;2023-02-13T03:08:59;100508.37;;;1.83;74.52
57847;BME280;43675;50.030;21.952;2023-02-13T03:11:27;100513.02;;;1.87;74.41
57847;BME280;43675;50.030;21.952;2023-02-13T03:13:55;100516.46;;;1.90;74.34
57847;BME280;43675;50.030;21.952;2023-02-13T03:16:24;100519.11;;;1.93;74.17
57847;BME280;43675;50.030;21.952;2023-02-13T03:18:52;100522.84;;;1.95;74.24
57847;BME280;43675;50.030;21.952;2023-02-13T03:28:12;100518.36;;;1.98;74.10
57847;BME280;43675;50.030;21.952;2023-02-13T03:35:42;100515.96;;;1.97;73.89
57847;BME280;43675;50.030;21.952;2023-02-13T03:38:17;100512.14;;;1.94;73.81
57847;BME280;43675;50.030;21.952;2023-02-13T03:41:34;100515.09;;;1.95;73.93
57847;BME280;43675;50.030;21.952;2023-02-13T03:44:48;100517.20;;;1.97;73.98
57847;BME280;43675;50.030;21.952;2023-02-13T03:46:50;100512.04;;;2.00;73.92
57847;BME280;43675;50.030;21.952;2023-02-13T03:49:34;100505.73;;;2.02;74.15
57847;BME280;43675;50.030;21.952;2023-02-13T03:52:06;100504.30;;;2.02;73.93
57847;BME280;43675;50.030;21.952;2023-02-13T03:54:43;100501.73;;;2.05;74.30
57847;BME280;43675;50.030;21.952;2023-02-13T03:57:17;100505.94;;;2.10;74.10
57847;BME280;43675;50.030;21.952;2023-02-13T03:59:45;100504.73;;;2.15;74.34
57847;BME280;43675;50.030;21.952;2023-02-13T04:02:14;100502.06;;;2.19;74.08
57847;BME280;43675;50.030;21.952;2023-02-13T04:04:56;100494.84;;;2.21;74.35
57847;BME280;43675;50.030;21.952;2023-02-13T04:07:25;100493.09;;;2.26;74.31
57847;BME280;43675;50.030;21.952;2023-02-13T04:09:51;100494.19;;;2.30;74.11
57847;BME280;43675;50.030;21.952;2023-02-13T04:12:20;100490.40;;;2.33;74.50
57847;BME280;43675;50.030;21.952;2023-02-13T04:17:52;100487.73;;;2.45;74.42
57847;BME280;43675;50.030;21.952;2023-02-13T04:20:20;100483.83;;;2.52;74.38
57847;BME280;43675;50.030;21.952;2023-02-13T04:22:47;100485.24;;;2.69;73.98
57847;BME280;43675;50.030;21.952;2023-02-13T04:25:15;100487.45;;;2.70;73.79
57847;BME280;43675;50.030;21.952;2023-02-13T04:27:43;100490.54;;;2.70;73.88
57847;BME280;43675;50.030;21.952;2023-02-13T04:30:10;100489.15;;;2.71;74.07
57847;BME280;43675;50.030;21.952;2023-02-13T04:32:37;100487.68;;;2.72;73.92
57847;BME280;43675;50.030;21.952;2023-02-13T04:35:04;100491.30;;;2.91;73.67
57847;BME280;43675;50.030;21.952;2023-02-13T04:37:30;100484.84;;;3.10;73.39
57847;BME280;43675;50.030;21.952;2023-02-13T04:39:57;100477.04;;;3.25;73.29
57847;BME280;43675;50.030;21.952;2023-02-13T04:42:23;100478.85;;;3.38;72.83
57847;BME280;43675;50.030;21.952;2023-02-13T04:44:50;100478.38;;;3.48;72.70
57847;BME280;43675;50.030;21.952;2023-02-13T04:47:16;100479.24;;;3.54;72.71
57847;BME280;43675;50.030;21.952;2023-02-13T04:49:43;100475.69;;;3.50;72.59
57847;BME280;43675;50.030;21.952;2023-02-13T04:52:10;100478.98;;;3.36;72.73
57847;BME280;43675;50.030;21.952;2023-02-13T04:54:36;100481.11;;;3.25;73.09
57847;BME280;43675;50.030;21.952;2023-02-13T04:57:03;100486.54;;;3.17;73.28
57847;BME280;43675;50.030;21.952;2023-02-13T04:59:29;100486.26;;;3.12;73.18
57847;BME280;43675;50.030;21.952;2023-02-13T05:01:56;100483.35;;;3.09;73.21
57847;BME280;43675;50.030;21.952;2023-02-13T05:04:22;100480.45;;;3.05;73.19
57847;BME280;43675;50.030;21.952;2023-02-13T05:06:49;100478.82;;;3.01;73.44
57847;BME280;43675;50.030;21.952;2023-02-13T05:09:15;100483.58;;;2.99;73.78
57847;BME280;43675;50.030;21.952;2023-02-13T05:11:42;100483.66;;;2.98;73.76
57847;BME280;43675;50.030;21.952;2023-02-13T05:14:09;100483.65;;;2.96;74.02
57847;BME280;43675;50.030;21.952;2023-02-13T05:16:37;100486.78;;;2.95;74.25
57847;BME280;43675;50.030;21.952;2023-02-13T05:19:03;100487.73;;;2.94;74.53
57847;BME280;43675;50.030;21.952;2023-02-13T05:21:30;100482.18;;;2.93;74.75
57847;BME280;43675;50.030;21.952;2023-02-13T05:23:56;100485.02;;;2.90;74.88
57847;BME280;43675;50.030;21.952;2023-02-13T05:26:23;100488.33;;;2.88;75.01
57847;BME280;43675;50.030;21.952;2023-02-13T05:28:49;100490.55;;;2.85;75.08
57847;BME280;43675;50.030;21.952;2023-02-13T05:31:16;100489.86;;;2.82;75.34
57847;BME280;43675;50.030;21.952;2023-02-13T05:33:42;100490.98;;;2.82;75.63
57847;BME280;43675;50.030;21.952;2023-02-13T05:36:09;100492.38;;;2.79;75.86
57847;BME280;43675;50.030;21.952;2023-02-13T05:38:35;100493.20;;;2.78;75.99
57847;BME280;43675;50.030;21.952;2023-02-13T05:41:02;100497.57;;;2.77;76.41
57847;BME280;43675;50.030;21.952;2023-02-13T05:43:29;100501.05;;;2.75;76.56
57847;BME280;43675;50.030;21.952;2023-02-13T05:46:06;100505.04;;;2.74;76.66
57847;BME280;43675;50.030;21.952;2023-02-13T05:48:33;100504.90;;;2.73;76.86
57847;BME280;43675;50.030;21.952;2023-02-13T05:51:00;100505.74;;;2.74;76.94
57847;BME280;43675;50.030;21.952;2023-02-13T05:53:27;100506.24;;;2.72;77.27
57847;BME280;43675;50.030;21.952;2023-02-13T05:55:54;100501.69;;;2.69;77.55
57847;BME280;43675;50.030;21.952;2023-02-13T05:58:21;100500.39;;;2.68;77.61
57847;BME280;43675;50.030;21.952;2023-02-13T06:00:47;100499.33;;;2.68;77.66
57847;BME280;43675;50.030;21.952;2023-02-13T06:03:14;100497.61;;;2.67;77.65
57847;BME280;43675;50.030;21.952;2023-02-13T06:05:41;100493.33;;;2.66;77.93
57847;BME280;43675;50.030;21.952;2023-02-13T06:08:07;100495.65;;;2.65;78.08
57847;BME280;43675;50.030;21.952;2023-02-13T06:10:34;100495.66;;;2.65;78.09
57847;BME280;43675;50.030;21.952;2023-02-13T06:13:00;100492.80;;;2.66;78.40
57847;BME280;43675;50.030;21.952;2023-02-13T06:15:27;100492.08;;;2.66;78.64
57847;BME280;43675;50.030;21.952;2023-02-13T06:17:53;100497.73;;;2.66;78.35
57847;BME280;43675;50.030;21.952;2023-02-13T06:20:20;100498.25;;;2.66;78.40
57847;BME280;43675;50.030;21.952;2023-02-13T06:22:48;100499.45;;;2.66;78.58
57847;BME280;43675;50.030;21.952;2023-02-13T06:25:15;100496.29;;;2.68;78.77
57847;BME280;43675;50.030;21.952;2023-02-13T06:27:42;100500.20;;;2.72;78.80
57847;BME280;43675;50.030;21.952;2023-02-13T06:30:09;100505.70;;;2.77;78.69
57847;BME280;43675;50.030;21.952;2023-02-13T06:32:36;100506.99;;;2.82;78.93
57847;BME280;43675;50.030;21.952;2023-02-13T06:35:03;100507.58;;;2.89;78.60
57847;BME280;43675;50.030;21.952;2023-02-13T06:37:29;100501.77;;;2.95;78.66
57847;BME280;43675;50.030;21.952;2023-02-13T06:39:56;100500.36;;;3.02;78.82
57847;BME280;43675;50.030;21.952;2023-02-13T06:42:23;100499.83;;;3.06;78.75
57847;BME280;43675;50.030;21.952;2023-02-13T06:44:49;100505.45;;;3.11;78.49
57847;BME280;43675;50.030;21.952;2023-02-13T06:47:16;100514.09;;;3.13;78.38
57847;BME280;43675;50.030;21.952;2023-02-13T06:49:42;100513.55;;;3.16;78.70
57847;BME280;43675;50.030;21.952;2023-02-13T06:52:09;100507.40;;;3.17;78.57
57847;BME280;43675;50.030;21.952;2023-02-13T06:54:36;100507.10;;;3.23;78.82
57847;BME280;43675;50.030;21.952;2023-02-13T06:57:02;100505.11;;;3.32;78.81
57847;BME280;43675;50.030;21.952;2023-02-13T06:59:29;100500.59;;;3.40;78.63
57847;BME280;43675;50.030;21.952;2023-02-13T07:01:55;100499.14;;;3.49;78.73
57847;BME280;43675;50.030;21.952;2023-02-13T07:04:22;100497.98;;;3.59;78.54
57847;BME280;43675;50.030;21.952;2023-02-13T07:06:49;100493.90;;;3.67;78.24
57847;BME280;43675;50.030;21.952;2023-02-13T07:09:15;100490.85;;;3.76;78.15
57847;BME280;43675;50.030;21.952;2023-02-13T07:11:42;100489.16;;;3.84;78.15
57847;BME280;43675;50.030;21.952;2023-02-13T07:14:08;100491.58;;;3.93;77.95
57847;BME280;43675;50.030;21.952;2023-02-13T07:16:35;100487.52;;;4.01;77.95
57847;BME280;43675;50.030;21.952;2023-02-13T07:19:01;100495.85;;;4.07;77.86
57847;BME280;43675;50.030;21.952;2023-02-13T07:21:28;100495.32;;;4.11;77.67
57847;BME280;43675;50.030;21.952;2023-02-13T07:23:55;100498.80;;;4.14;77.47
57847;BME280;43675;50.030;21.952;2023-02-13T07:26:21;100502.86;;;4.16;77.37
57847;BME280;43675;50.030;21.952;2023-02-13T07:28:48;100506.45;;;4.18;77.32
57847;BME280;43675;50.030;21.952;2023-02-13T07:31:14;100502.98;;;4.15;77.21
57847;BME280;43675;50.030;21.952;2023-02-13T07:33:41;100506.79;;;4.10;77.15
57847;BME280;43675;50.030;21.952;2023-02-13T07:36:08;100505.52;;;4.04;77.31
57847;BME280;43675;50.030;21.952;2023-02-13T07:38:34;100506.78;;;4.01;77.26
57847;BME280;43675;50.030;21.952;2023-02-13T07:41:02;100510.58;;;4.03;77.32
57847;BME280;43675;50.030;21.952;2023-02-13T07:43:30;100505.10;;;4.07;77.26
57847;BME280;43675;50.030;21.952;2023-02-13T07:45:58;100505.95;;;4.09;77.11
57847;BME280;43675;50.030;21.952;2023-02-13T07:48:26;100505.04;;;4.07;77.21
57847;BME280;43675;50.030;21.952;2023-02-13T07:50:54;100506.41;;;4.16;77.06
57847;BME280;43675;50.030;21.952;2023-02-13T07:53:24;100506.34;;;4.17;76.95
57847;BME280;43675;50.030;21.952;2023-02-13T07:55:51;100506.02;;;4.19;76.81
57847;BME280;43675;50.030;21.952;2023-02-13T07:58:17;100503.20;;;4.23;76.89
57847;BME280;43675;50.030;21.952;2023-02-13T08:00:44;100504.22;;;4.25;76.79
57847;BME280;43675;50.030;21.952;2023-02-13T08:03:10;100503.61;;;4.28;76.87
57847;BME280;43675;50.030;21.952;2023-02-13T08:05:37;100503.02;;;4.34;76.68
57847;BME280;43675;50.030;21.952;2023-02-13T08:08:04;100500.52;;;4.32;76.66
57847;BME280;43675;50.030;21.952;2023-02-13T08:10:31;100496.96;;;4.29;76.59
57847;BME280;43675;50.030;21.952;2023-02-13T08:12:58;100501.07;;;4.29;76.47
57847;BME280;43675;50.030;21.952;2023-02-13T08:15:25;100499.77;;;4.28;76.40
57847;BME280;43675;50.030;21.952;2023-02-13T08:17:52;100495.66;;;4.28;76.49
57847;BME280;43675;50.030;21.952;2023-02-13T08:20:18;100497.91;;;4.33;76.54
57847;BME280;43675;50.030;21.952;2023-02-13T08:22:45;100504.17;;;4.43;76.39
57847;BME280;43675;50.030;21.952;2023-02-13T08:25:12;100503.88;;;4.46;76.31
57847;BME280;43675;50.030;21.952;2023-02-13T08:27:38;100505.77;;;4.51;76.21
57847;BME280;43675;50.030;21.952;2023-02-13T08:30:06;100504.58;;;4.52;75.93
57847;BME280;43675;50.030;21.952;2023-02-13T08:32:32;100501.34;;;4.51;75.85
57847;BME280;43675;50.030;21.952;2023-02-13T08:34:59;100498.77;;;4.52;76.09
57847;BME280;43675;50.030;21.952;2023-02-13T08:37:26;100498.22;;;4.62;75.94
57847;BME280;43675;50.030;21.952;2023-02-13T08:39:52;100497.23;;;4.71;75.81
57847;BME280;43675;50.030;21.952;2023-02-13T08:42:19;100493.92;;;4.77;75.39
57847;BME280;43675;50.030;21.952;2023-02-13T08:44:45;100500.95;;;4.88;75.50
57847;BME280;43675;50.030;21.952;2023-02-13T08:47:12;100504.80;;;4.94;75.17
57847;BME280;43675;50.030;21.952;2023-02-13T08:49:39;100501.14;;;4.96;74.98
57847;BME280;43675;50.030;21.952;2023-02-13T08:52:05;100501.86;;;4.99;75.06
57847;BME280;43675;50.030;21.952;2023-02-13T08:54:33;100500.61;;;5.03;74.81
57847;BME280;43675;50.030;21.952;2023-02-13T08:56:59;100495.24;;;5.08;74.67
57847;BME280;43675;50.030;21.952;2023-02-13T08:59:26;100492.91;;;5.18;74.70
57847;BME280;43675;50.030;21.952;2023-02-13T09:01:52;100491.68;;;5.24;74.38
57847;BME280;43675;50.030;21.952;2023-02-13T09:04:19;100489.90;;;5.28;74.15
57847;BME280;43675;50.030;21.952;2023-02-13T09:06:46;100487.83;;;5.37;74.16
57847;BME280;43675;50.030;21.952;2023-02-13T09:09:12;100487.13;;;5.47;73.97
57847;BME280;43675;50.030;21.952;2023-02-13T09:11:39;100482.61;;;5.52;73.76
57847;BME280;43675;50.030;21.952;2023-02-13T09:14:05;100487.62;;;5.59;73.59
57847;BME280;43675;50.030;21.952;2023-02-13T09:16:32;100486.27;;;5.67;73.64
57847;BME280;43675;50.030;21.952;2023-02-13T09:18:59;100484.60;;;5.72;73.40
57847;BME280;43675;50.030;21.952;2023-02-13T09:21:26;100488.58;;;5.73;73.15
57847;BME280;43675;50.030;21.952;2023-02-13T09:23:52;100487.63;;;5.78;73.19
57847;BME280;43675;50.030;21.952;2023-02-13T09:26:19;100490.83;;;5.82;72.99
57847;BME280;43675;50.030;21.952;2023-02-13T09:28:45;100494.90;;;5.92;72.75
57847;BME280;43675;50.030;21.952;2023-02-13T09:31:17;100492.29;;;6.05;72.66
57847;BME280;43675;50.030;21.952;2023-02-13T09:33:44;100496.28;;;6.17;72.34
57847;BME280;43675;50.030;21.952;2023-02-13T09:36:14;100496.21;;;6.31;72.11
57847;BME280;43675;50.030;21.952;2023-02-13T09:38:41;100494.28;;;6.38;71.84
57847;BME280;43675;50.030;21.952;2023-02-13T09:41:18;100488.98;;;6.36;71.49
57847;BME280;43675;50.030;21.952;2023-02-13T09:43:52;100485.73;;;6.33;71.67
57847;BME280;43675;50.030;21.952;2023-02-13T09:46:24;100483.73;;;6.35;71.52
57847;BME280;43675;50.030;21.952;2023-02-13T09:48:55;100481.70;;;6.29;71.33
57847;BME280;43675;50.030;21.952;2023-02-13T09:51:23;100475.93;;;6.33;71.43
57847;BME280;43675;50.030;21.952;2023-02-13T09:53:55;100474.55;;;6.44;71.29
57847;BME280;43675;50.030;21.952;2023-02-13T09:56:48;100465.60;;;6.58;71.03
57847;BME280;43675;50.030;21.952;2023-02-13T10:01:52;100451.67;;;6.71;70.55
57847;BME280;43675;50.030;21.952;2023-02-13T10:09:57;100449.80;;;6.70;70.49
57847;BME280;43675;50.030;21.952;2023-02-13T10:18:37;100437.20;;;6.87;69.99
57847;BME280;43675;50.030;21.952;2023-02-13T10:21:07;100432.25;;;7.02;70.09
57847;BME280;43675;50.030;21.952;2023-02-13T10:23:43;100430.59;;;7.25;69.83
57847;BME280;43675;50.030;21.952;2023-02-13T10:28:54;100432.85;;;7.73;68.87
57847;BME280;43675;50.030;21.952;2023-02-13T10:31:23;100433.45;;;7.81;68.68
57847;BME280;43675;50.030;21.952;2023-02-13T10:33:58;100429.77;;;7.89;68.24
57847;BME280;43675;50.030;21.952;2023-02-13T10:36:33;100428.26;;;7.90;67.99
57847;BME280;43675;50.030;21.952;2023-02-13T10:53:20;100408.80;;;8.08;67.09
57847;BME280;43675;50.030;21.952;2023-02-13T11:01:52;100396.33;;;8.27;66.75
57847;BME280;43675;50.030;21.952;2023-02-13T11:04:12;100396.92;;;8.33;66.80
57847;BME280;43675;50.030;21.952;2023-02-13T11:06:54;100396.14;;;8.36;66.40
57847;BME280;43675;50.030;21.952;2023-02-13T11:09:21;100390.01;;;8.38;66.36
57847;BME280;43675;50.030;21.952;2023-02-13T11:11:48;100387.94;;;8.41;65.99
57847;BME280;43675;50.030;21.952;2023-02-13T11:14:33;100394.03;;;8.42;66.06
57847;BME280;43675;50.030;21.952;2023-02-13T11:17:00;100390.89;;;8.41;65.79
57847;BME280;43675;50.030;21.952;2023-02-13T11:19:55;100394.92;;;8.39;66.22
57847;BME280;43675;50.030;21.952;2023-02-13T11:22:32;100393.52;;;8.35;65.98
57847;BME280;43675;50.030;21.952;2023-02-13T11:25:07;100394.55;;;8.30;65.65
57847;BME280;43675;50.030;21.952;2023-02-13T11:27:42;100393.66;;;8.25;65.53
57847;BME280;43675;50.030;21.952;2023-02-13T11:33:23;100402.71;;;8.46;65.33
57847;BME280;43675;50.030;21.952;2023-02-13T11:36:13;100404.08;;;8.38;65.06
57847;BME280;43675;50.030;21.952;2023-02-13T11:38:40;100401.73;;;8.32;65.06
57847;BME280;43675;50.030;21.952;2023-02-13T11:41:12;100399.23;;;8.35;64.85
57847;BME280;43675;50.030;21.952;2023-02-13T11:43:46;100398.45;;;8.36;64.49
57847;BME280;43675;50.030;21.952;2023-02-13T11:46:18;100392.21;;;8.39;64.56
57847;BME280;43675;50.030;21.952;2023-02-13T11:49:05;100387.39;;;8.39;64.50
57847;BME280;43675;50.030;21.952;2023-02-13T11:51:38;100387.81;;;8.42;64.71
57847;BME280;43675;50.030;21.952;2023-02-13T11:54:06;100389.13;;;8.43;64.31
57847;BME280;43675;50.030;21.952;2023-02-13T11:56:52;100388.27;;;8.43;64.26
57847;BME280;43675;50.030;21.952;2023-02-13T11:59:22;100382.83;;;8.42;64.12
57847;BME280;43675;50.030;21.952;2023-02-13T12:04:45;100379.65;;;8.42;64.30
57847;BME280;43675;50.030;21.952;2023-02-13T12:07:16;100375.20;;;8.36;64.04
57847;BME280;43675;50.030;21.952;2023-02-13T12:09:47;100376.77;;;8.47;63.93
57847;BME280;43675;50.030;21.952;2023-02-13T12:12:20;100378.08;;;8.48;63.81
57847;BME280;43675;50.030;21.952;2023-02-13T12:14:48;100373.34;;;8.50;63.87
57847;BME280;43675;50.030;21.952;2023-02-13T12:17:25;100369.81;;;8.54;63.95
57847;BME280;43675;50.030;21.952;2023-02-13T12:19:53;100366.26;;;8.59;63.59
57847;BME280;43675;50.030;21.952;2023-02-13T12:41:19;100348.06;;;9.22;62.32
57847;BME280;43675;50.030;21.952;2023-02-13T12:54:57;100335.13;;;9.19;62.15
57847;BME280;43675;50.030;21.952;2023-02-13T13:05:49;100325.38;;;8.98;62.06
57847;BME280;43675;50.030;21.952;2023-02-13T13:23:17;100321.75;;;8.58;61.40
57847;BME280;43675;50.030;21.952;2023-02-13T13:26:04;100316.80;;;8.47;61.43
57847;BME280;43675;50.030;21.952;2023-02-13T13:28:42;100324.27;;;8.39;61.11
57847;BME280;43675;50.030;21.952;2023-02-13T13:31:11;100328.31;;;8.14;61.07
57847;BME280;43675;50.030;21.952;2023-02-13T13:33:40;100323.66;;;7.90;61.61
57847;BME280;43675;50.030;21.952;2023-02-13T13:49:34;100333.13;;;6.78;63.51
57847;BME280;43675;50.030;21.952;2023-02-13T13:54:36;100327.25;;;6.57;64.11
57847;BME280;43675;50.030;21.952;2023-02-13T13:57:05;100317.21;;;6.49;64.42
57847;BME280;43675;50.030;21.952;2023-02-13T14:07:34;100310.97;;;6.30;65.39
57847;BME280;43675;50.030;21.952;2023-02-13T14:10:02;100305.79;;;6.30;65.60
57847;BME280;43675;50.030;21.952;2023-02-13T14:14:57;100302.59;;;6.32;65.82
57847;BME280;43675;50.030;21.952;2023-02-13T14:23:05;100298.20;;;6.31;65.97
57847;BME280;43675;50.030;21.952;2023-02-13T14:25:33;100297.91;;;6.27;66.20
57847;BME280;43675;50.030;21.952;2023-02-13T14:28:02;100292.87;;;6.16;66.22
57847;BME280;43675;50.030;21.952;2023-02-13T14:30:32;100297.28;;;6.09;66.44
57847;BME280;43675;50.030;21.952;2023-02-13T14:33:05;100294.40;;;6.01;66.81
57847;BME280;43675;50.030;21.952;2023-02-13T14:35:34;100294.01;;;5.92;67.10
57847;BME280;43675;50.030;21.952;2023-02-13T14:38:04;100293.63;;;5.87;67.08
57847;BME280;43675;50.030;21.952;2023-02-13T14:40:47;100286.05;;;5.82;67.48
57847;BME280;43675;50.030;21.952;2023-02-13T14:48:50;100279.33;;;5.64;67.86
57847;BME280;43675;50.030;21.952;2023-02-13T14:51:39;100280.33;;;5.59;68.11
57847;BME280;43675;50.030;21.952;2023-02-13T14:54:17;100281.14;;;5.58;68.43
57847;BME280;43675;50.030;21.952;2023-02-13T14:56:46;100280.86;;;5.60;68.35
57847;BME280;43675;50.030;21.952;2023-02-13T14:59:17;100286.95;;;5.55;68.46
57847;BME280;43675;50.030;21.952;2023-02-13T15:02:01;100283.38;;;5.52;68.59
57847;BME280;43675;50.030;21.952;2023-02-13T15:04:48;100276.77;;;5.45;68.83
57847;BME280;43675;50.030;21.952;2023-02-13T15:07:22;100273.70;;;5.44;68.85
57847;BME280;43675;50.030;21.952;2023-02-13T15:13:02;100274.29;;;5.37;69.04
57847;BME280;43675;50.030;21.952;2023-02-13T15:15:31;100266.98;;;5.32;69.08
57847;BME280;43675;50.030;21.952;2023-02-13T15:18:01;100261.36;;;5.30;69.22
57847;BME280;43675;50.030;21.952;2023-02-13T15:20:33;100254.41;;;5.24;69.38
57847;BME280;43675;50.030;21.952;2023-02-13T15:23:00;100257.65;;;5.10;69.53
57847;BME280;43675;50.030;21.952;2023-02-13T15:25:38;100260.57;;;4.94;69.91
57847;BME280;43675;50.030;21.952;2023-02-13T15:28:07;100258.71;;;4.82;70.22
57847;BME280;43675;50.030;21.952;2023-02-13T15:30:35;100253.79;;;4.81;70.41
57847;BME280;43675;50.030;21.952;2023-02-13T15:33:16;100254.27;;;4.74;70.62
57847;BME280;43675;50.030;21.952;2023-02-13T15:35:43;100252.30;;;4.68;70.83
57847;BME280;43675;50.030;21.952;2023-02-13T15:38:32;100250.59;;;4.64;70.83
57847;BME280;43675;50.030;21.952;2023-02-13T15:41:12;100244.81;;;4.59;71.11
57847;BME280;43675;50.030;21.952;2023-02-13T15:43:44;100245.61;;;4.58;71.30
57847;BME280;43675;50.030;21.952;2023-02-13T15:48:45;100250.33;;;4.59;71.67
57847;BME280;43675;50.030;21.952;2023-02-13T15:51:19;100254.60;;;4.58;71.67
57847;BME280;43675;50.030;21.952;2023-02-13T15:56:49;100259.60;;;4.62;71.78
57847;BME280;43675;50.030;21.952;2023-02-13T15:59:18;100264.39;;;4.68;71.64
57847;BME280;43675;50.030;21.952;2023-02-13T16:01:45;100271.17;;;4.85;71.86
57847;BME280;43675;50.030;21.952;2023-02-13T16:04:15;100271.30;;;5.01;71.53